MiSS Allie — WDG3664 — position and weather

sailwx.info

Track history (hours):
 
Tides and Currents Weather Stations Pressure Air Temp Water Temp Dewpoint Dewpoint Depression Visibility Wind Speed Wind Dir Waves Ship Positions

MiSS Allie

Owner: Genesis Marine, LLC, Houston, TX. More information available from US FCC via Universal Licensing System and Coast Guard Vessel Documentation Center.

Last reported at 2018-Jan-19 17:08 UTC. Time now 2018-Jan-20 17:04 UTC.
Position N 29°42' W 095°01'.

Length 29 m; draft 3.2 m.

Type: Other ship. MMSI: 367528420.

Date/timePositionNaut miles runAvg speedWind from/ knotsBaromVisibWave heightAir tempDewpointWater temp
2018-Jan-19 17:08N 29°42' W 095°01'1 7.2
2018-Jan-19 16:59N 29°42' W 094°60'3 6.5
2018-Jan-19 16:28N 29°39' W 094°58'4 7.7
2018-Jan-19 15:56N 29°35' W 094°56'3 7.1
2018-Jan-19 15:30N 29°33' W 094°54'  
2018-Jan-11 05:05N 29°32' W 094°54'110.0
2018-Jan-11 05:00N 29°33' W 094°54'510.1
2018-Jan-11 04:30N 29°37' W 094°57'510.1
2018-Jan-11 04:01N 29°42' W 094°60'4 7.7
2018-Jan-11 03:28N 29°44' W 095°03'1 0.0
2018-Jan-10 07:27N 29°44' W 095°03'1 0.9
2018-Jan-10 06:53N 29°44' W 095°03'3 5.9
2018-Jan-10 06:24N 29°46' W 095°06'  
Track history (hours):
 
Tides and Currents Weather Stations Pressure Air Temp Water Temp Dewpoint Dewpoint Depression Visibility Wind Speed Wind Dir Waves Ship Positions

MiSS Allie

Owner: Genesis Marine, LLC, Houston, TX. More information available from US FCC via Universal Licensing System and Coast Guard Vessel Documentation Center.

Last reported at 2018-Jan-19 17:08 UTC. Time now 2018-Jan-20 17:04 UTC.
Position N 29°42' W 095°01'.

Length 29 m; draft 3.2 m.

Type: Other ship. MMSI: 367528420.

Date/timePositionNaut miles runAvg speedWind from/ knotsBaromVisibWave heightAir tempDewpointWater temp
2018-Jan-19 17:08N 29°42' W 095°01'1 7.2
2018-Jan-19 16:59N 29°42' W 094°60'3 6.5
2018-Jan-19 16:28N 29°39' W 094°58'4 7.7
2018-Jan-19 15:56N 29°35' W 094°56'3 7.1
2018-Jan-19 15:30N 29°33' W 094°54'  
2018-Jan-11 05:05N 29°32' W 094°54'110.0
2018-Jan-11 05:00N 29°33' W 094°54'510.1
2018-Jan-11 04:30N 29°37' W 094°57'510.1
2018-Jan-11 04:01N 29°42' W 094°60'4 7.7
2018-Jan-11 03:28N 29°44' W 095°03'1 0.0
2018-Jan-10 07:27N 29°44' W 095°03'1 0.9
2018-Jan-10 06:53N 29°44' W 095°03'3 5.9
2018-Jan-10 06:24N 29°46' W 095°06'  

Dump ship's entire track history